Packwood, WA (98361)

6:04 PM PDT on July 24, 2016 (GMT -0700)
Cowlitz Vista | | Change Station

Elev 1109 ft 46.62 °N, 121.68 °W | Updated 10 minutes ago

Clear
Clear
82.6 °F
Feels Like 84 °F
N
2.7
Wind Variable Wind from SSE

Today
High -- | Low -- °F
--% Chance of Precip.
Yesterday
High -- | Low -- °F
Precip. -- in
Pressure 30.03 in
Visibility -9999.0 miles
Clouds Clear
Heat Index 84 °F
Dew Point 63 °F
Humidity 51%
Rainfall 0.00 in
Snow Depth Not available.
5:38 AM 8:47 PM
Waning Gibbous, 71% visible
METAR KPLU 250055Z AUTO VRB04G11KT CLR 27/13 A3003 RMK AO2
Pressure 30.03 in
Visibility -9999.0 miles
Clouds Clear
Heat Index 84 °F
Dew Point 63 °F
Humidity 51%
Rainfall 0.00 in
Snow Depth Not available.
5:38 AM 8:47 PM
Waning Gibbous, 71% visible
METAR KPLU 250055Z AUTO VRB04G11KT CLR 27/13 A3003 RMK AO2

10-Day Weather Forecast

Almanac

Astronomy

Jul. 24, 2016 Rise Set
Actual Time
Civil Twilight
Nautical Twilight
Astronomical Twilight
Moon
Length of Visible Light
Length of Day
Tomorrow will be .
, % of the Moon is Illuminated

Today's Extremes

State Highs State Lows

Community

WunderPhotos

Upload Photos

1,927,224 photos uploaded!

WunderBlog® & News

Nearby

Air Quality

  Air Quality AQ Index Pollutant
Not available.

Snow Depth

Station Depth Elevation

Earthquake Activity

City Distance Mag. Time & Date
Minimum magnitude displayed is 2.5.

Coastal Water Temperatures

Place Temperature

Stations

Nearby Weather Stations

Station Location Temp. Windchill Dew Point Humidity Wind Precip. Elev Updated Type
                   

Watches & Warnings

There are currently no watches in effect.